GCTSGCRR

Guest
Details From GCTS - Tenerife Sur
To GCRR - Lanzarote
Flight Number -
Tags generated
Created
Modified
Stats Distance 169 nm / 313 km
Max Altitude 13,800 ft / 4,206 m
Waypoints 3
Social Downloads 11
Likes 0
Share

Download

Looking for another format? Having issues loading an existing format? Contact us
Advertisement - Login to hide

Notes

Basic altitude profile: - Ascent Rate: 2500ft/min - Ascent Speed: 250kts - Cruise Altitude: 35000ft - Cruise Speed: 420kts - Descent Rate: 1500ft/min - Descent Speed: 250kts Options: - Use NATs: yes - Use PACOTS: yes - Use low airways: yes - Use high airways: yes

Route

GCTS LARYS GCRR

ID Type Via Altitude (ft/m) Position (lat/lon) Dist (leg/tot) Name
O GCTS APT - 0 / 0 28.04448 / -16.57249 - / 0 nm Tenerife Sur
LARYS FIX - 13,800 / 4,206 28.87183 / -14.83429 104 / 104 nm
O GCRR APT - 0 / 0 28.94547 / -13.60522 64 / 169 nm Lanzarote

Altitude Profile

Advertisement - Login to hide

Weather


0- 5 10 15 20 25 30 35+ Temperature / °C

Clouds and Precipitation
Forecast for 2021-03-22 12:00 UTC. Updated a month ago

Ground ~20,000 ft ~40,000 ft Winds

GCTS

Details ICAO GCTS (TFS)
Name Tenerife Sur-Reina Sofía
Region Canary Islands
Timezone Atlantic/Canary (UTC+1.0)
Stats Elevation 209 ft / 64 m (AMSL)
Location 28.044500° -16.572500°
Runways 1
Magnetic Variation 4.722° W

METAR

GCTS 070730Z 02004KT 350V060 9999 FEW030 19/11 Q1019 NOSIG

Decode

TAF

TAF GCTS 070200Z 0703/0803 03009KT 9999 FEW035 TX25/0714Z TN17/0706Z BECMG 0709/0711 10014KT

Decode

Departure Runways

ID Width Length Bearing (true/mag) Surface Threshold Overrun Markings Lighting
07 148 ft / 45 m 10,479 ft / 3,194 m 68.48° / 73.20° ASPHALT 0 ft / 0 m 0 ft / 0 m PREC-APP CENTERLINE EDGE THRESHOLD ALSF-II REIL-OMNI
25 148 ft / 45 m 10,479 ft / 3,194 m 248.50° / 253.22° ASPHALT 0 ft / 0 m 0 ft / 0 m PREC-APP CENTERLINE EDGE THRESHOLD ALSF-II REIL-OMNI

GCRR

Details ICAO GCRR (ACE)
Name César Manrique-Lanzarote
Region Canary Islands
Timezone Atlantic/Canary (UTC+1.0)
Stats Elevation 47 ft / 14 m (AMSL)
Location 28.945500° -13.605200°
Runways 1
Magnetic Variation 3.589° W

METAR

GCRR 070730Z 02012KT 360V060 9999 FEW020 19/15 Q1018

Decode

TAF

TAF GCRR 070200Z 0703/0803 02009KT 9999 FEW025 TX25/0714Z TN16/0706Z PROB40 0710/0716 08010KT

Decode

Destination Runways

ID Width Length Bearing (true/mag) Surface Threshold Overrun Markings Lighting
03 148 ft / 45 m 7,887 ft / 2,404 m 26.90° / 30.49° ASPHALT 285 ft / 87 m 236 ft / 72 m PREC-APP CENTERLINE EDGE THRESHOLD MALSF REIL-OMNI
21 148 ft / 45 m 7,887 ft / 2,404 m 206.90° / 210.49° ASPHALT 0 ft / 0 m 486 ft / 148 m PREC-APP CENTERLINE EDGE THRESHOLD MALSF REIL-OMNI

Approach Navaids

Runway Type Ident Frequency Range Bearing (true/mag) Slope Elevation
03 LOC-ILS IRR 109.10 MHz 18 nm / 33 km 26.90° / 30.49 ° - 47 ft / 14 m (AMSL)
03 GS IRR 109.10 MHz 10 nm / 19 km 27.81° / 31.39 ° 3.00° 0 ft / 0 m (AMSL)
03 DME IRR 109.10 MHz 18 nm / 33 km - - 36 ft / 11 m (AMSL)

Popular Alternatives